sensor_id;sensor_type;location;lat;lon;timestamp;P1;durP1;ratioP1;P2;durP2;ratioP2
55090;SDS011;40985;53.180;5.800;2023-05-09T00:00:42;25.42;;;16.02;;
55090;SDS011;40985;53.180;5.800;2023-05-09T00:03:08;23.00;;;15.02;;
55090;SDS011;40985;53.180;5.800;2023-05-09T00:05:36;25.63;;;14.63;;
55090;SDS011;40985;53.180;5.800;2023-05-09T00:08:02;23.00;;;16.20;;
55090;SDS011;40985;53.180;5.800;2023-05-09T00:10:28;24.33;;;16.25;;
55090;SDS011;40985;53.180;5.800;2023-05-09T00:12:54;27.13;;;15.80;;
55090;SDS011;40985;53.180;5.800;2023-05-09T00:15:21;29.17;;;16.80;;
55090;SDS011;40985;53.180;5.800;2023-05-09T00:17:47;25.48;;;16.30;;
55090;SDS011;40985;53.180;5.800;2023-05-09T00:20:14;30.63;;;17.90;;
55090;SDS011;40985;53.180;5.800;2023-05-09T00:22:40;23.88;;;17.90;;
55090;SDS011;40985;53.180;5.800;2023-05-09T00:25:09;28.05;;;18.58;;
55090;SDS011;40985;53.180;5.800;2023-05-09T00:27:35;28.45;;;18.17;;
55090;SDS011;40985;53.180;5.800;2023-05-09T00:30:02;28.58;;;18.13;;
55090;SDS011;40985;53.180;5.800;2023-05-09T00:32:29;27.33;;;17.50;;
55090;SDS011;40985;53.180;5.800;2023-05-09T00:34:56;25.90;;;18.30;;
55090;SDS011;40985;53.180;5.800;2023-05-09T00:37:22;28.25;;;18.63;;
55090;SDS011;40985;53.180;5.800;2023-05-09T00:39:48;24.00;;;17.75;;
55090;SDS011;40985;53.180;5.800;2023-05-09T00:42:13;26.00;;;18.58;;
55090;SDS011;40985;53.180;5.800;2023-05-09T00:44:39;30.30;;;20.63;;
55090;SDS011;40985;53.180;5.800;2023-05-09T00:47:05;28.70;;;20.85;;
55090;SDS011;40985;53.180;5.800;2023-05-09T00:49:31;27.80;;;19.75;;
55090;SDS011;40985;53.180;5.800;2023-05-09T00:51:57;29.17;;;20.30;;
55090;SDS011;40985;53.180;5.800;2023-05-09T00:54:23;29.38;;;20.17;;
55090;SDS011;40985;53.180;5.800;2023-05-09T00:56:50;30.50;;;19.85;;
55090;SDS011;40985;53.180;5.800;2023-05-09T00:59:16;31.40;;;20.08;;
55090;SDS011;40985;53.180;5.800;2023-05-09T01:01:43;27.83;;;18.77;;
55090;SDS011;40985;53.180;5.800;2023-05-09T01:04:09;33.15;;;20.88;;
55090;SDS011;40985;53.180;5.800;2023-05-09T01:14:32;32.63;;;20.75;;
55090;SDS011;40985;53.180;5.800;2023-05-09T01:17:28;29.85;;;19.70;;
55090;SDS011;40985;53.180;5.800;2023-05-09T01:26:06;36.95;;;22.15;;
55090;SDS011;40985;53.180;5.800;2023-05-09T01:28:56;31.17;;;21.67;;
55090;SDS011;40985;53.180;5.800;2023-05-09T01:31:25;31.60;;;22.17;;
55090;SDS011;40985;53.180;5.800;2023-05-09T01:33:53;35.97;;;22.15;;
55090;SDS011;40985;53.180;5.800;2023-05-09T01:36:23;32.10;;;22.33;;
55090;SDS011;40985;53.180;5.800;2023-05-09T01:38:53;34.28;;;21.88;;
55090;SDS011;40985;53.180;5.800;2023-05-09T01:41:21;35.60;;;22.77;;
55090;SDS011;40985;53.180;5.800;2023-05-09T01:43:48;32.78;;;22.05;;
55090;SDS011;40985;53.180;5.800;2023-05-09T01:46:16;33.75;;;22.75;;
55090;SDS011;40985;53.180;5.800;2023-05-09T01:48:43;33.20;;;23.35;;
55090;SDS011;40985;53.180;5.800;2023-05-09T01:51:10;31.63;;;21.48;;
55090;SDS011;40985;53.180;5.800;2023-05-09T01:53:38;30.52;;;21.35;;
55090;SDS011;40985;53.180;5.800;2023-05-09T01:56:06;33.17;;;22.67;;
55090;SDS011;40985;53.180;5.800;2023-05-09T01:58:33;34.05;;;22.42;;
55090;SDS011;40985;53.180;5.800;2023-05-09T02:01:02;36.03;;;23.65;;
55090;SDS011;40985;53.180;5.800;2023-05-09T02:03:29;35.03;;;23.15;;
55090;SDS011;40985;53.180;5.800;2023-05-09T02:05:58;34.15;;;21.90;;
55090;SDS011;40985;53.180;5.800;2023-05-09T02:08:25;33.95;;;21.63;;
55090;SDS011;40985;53.180;5.800;2023-05-09T02:10:51;33.80;;;22.02;;
55090;SDS011;40985;53.180;5.800;2023-05-09T02:13:17;38.40;;;23.42;;
55090;SDS011;40985;53.180;5.800;2023-05-09T02:15:43;35.70;;;23.48;;
55090;SDS011;40985;53.180;5.800;2023-05-09T02:18:09;38.70;;;23.67;;
55090;SDS011;40985;53.180;5.800;2023-05-09T02:20:35;34.97;;;22.13;;
55090;SDS011;40985;53.180;5.800;2023-05-09T02:23:01;33.08;;;21.65;;
55090;SDS011;40985;53.180;5.800;2023-05-09T02:25:27;35.20;;;23.17;;
55090;SDS011;40985;53.180;5.800;2023-05-09T02:27:54;37.17;;;22.85;;
55090;SDS011;40985;53.180;5.800;2023-05-09T02:30:22;34.20;;;23.33;;
55090;SDS011;40985;53.180;5.800;2023-05-09T02:32:54;34.58;;;23.63;;
55090;SDS011;40985;53.180;5.800;2023-05-09T02:35:24;36.05;;;23.13;;
55090;SDS011;40985;53.180;5.800;2023-05-09T02:37:51;35.55;;;23.30;;
55090;SDS011;40985;53.180;5.800;2023-05-09T02:40:18;32.55;;;23.05;;
55090;SDS011;40985;53.180;5.800;2023-05-09T02:42:45;41.13;;;24.80;;
55090;SDS011;40985;53.180;5.800;2023-05-09T02:45:11;38.05;;;23.90;;
55090;SDS011;40985;53.180;5.800;2023-05-09T02:47:37;39.38;;;23.55;;
55090;SDS011;40985;53.180;5.800;2023-05-09T02:50:03;36.70;;;22.77;;
55090;SDS011;40985;53.180;5.800;2023-05-09T02:52:30;40.53;;;24.30;;
55090;SDS011;40985;53.180;5.800;2023-05-09T02:54:55;41.15;;;25.52;;
55090;SDS011;40985;53.180;5.800;2023-05-09T02:57:21;40.92;;;25.70;;
55090;SDS011;40985;53.180;5.800;2023-05-09T02:59:47;39.88;;;24.58;;
55090;SDS011;40985;53.180;5.800;2023-05-09T03:02:13;39.05;;;25.45;;
55090;SDS011;40985;53.180;5.800;2023-05-09T03:04:38;41.85;;;26.15;;
55090;SDS011;40985;53.180;5.800;2023-05-09T03:07:05;46.72;;;27.75;;
55090;SDS011;40985;53.180;5.800;2023-05-09T03:09:30;44.40;;;26.67;;
55090;SDS011;40985;53.180;5.800;2023-05-09T03:11:56;45.40;;;26.55;;
55090;SDS011;40985;53.180;5.800;2023-05-09T03:14:22;46.17;;;28.20;;
55090;SDS011;40985;53.180;5.800;2023-05-09T03:16:47;55.67;;;29.67;;
55090;SDS011;40985;53.180;5.800;2023-05-09T03:19:13;47.15;;;27.75;;
55090;SDS011;40985;53.180;5.800;2023-05-09T03:21:39;50.75;;;28.42;;
55090;SDS011;40985;53.180;5.800;2023-05-09T03:24:06;45.88;;;27.63;;
55090;SDS011;40985;53.180;5.800;2023-05-09T03:26:32;49.67;;;28.25;;
55090;SDS011;40985;53.180;5.800;2023-05-09T03:29:00;52.92;;;30.33;;
55090;SDS011;40985;53.180;5.800;2023-05-09T03:31:26;54.47;;;30.17;;
55090;SDS011;40985;53.180;5.800;2023-05-09T03:33:51;51.42;;;31.30;;
55090;SDS011;40985;53.180;5.800;2023-05-09T03:36:17;52.40;;;31.50;;
55090;SDS011;40985;53.180;5.800;2023-05-09T03:38:43;51.70;;;29.98;;
55090;SDS011;40985;53.180;5.800;2023-05-09T03:41:08;52.95;;;29.48;;
55090;SDS011;40985;53.180;5.800;2023-05-09T03:43:34;50.95;;;29.42;;
55090;SDS011;40985;53.180;5.800;2023-05-09T03:46:00;54.67;;;30.00;;
55090;SDS011;40985;53.180;5.800;2023-05-09T03:48:26;52.63;;;29.60;;
55090;SDS011;40985;53.180;5.800;2023-05-09T03:50:51;49.40;;;28.45;;
55090;SDS011;40985;53.180;5.800;2023-05-09T03:53:17;52.50;;;28.60;;
55090;SDS011;40985;53.180;5.800;2023-05-09T03:55:44;55.60;;;30.83;;
55090;SDS011;40985;53.180;5.800;2023-05-09T03:58:10;52.80;;;29.40;;
55090;SDS011;40985;53.180;5.800;2023-05-09T04:00:36;50.50;;;28.48;;
55090;SDS011;40985;53.180;5.800;2023-05-09T04:03:02;48.53;;;28.65;;
55090;SDS011;40985;53.180;5.800;2023-05-09T04:05:28;54.08;;;30.30;;
55090;SDS011;40985;53.180;5.800;2023-05-09T04:07:54;57.00;;;31.17;;
55090;SDS011;40985;53.180;5.800;2023-05-09T04:10:20;56.03;;;31.20;;
55090;SDS011;40985;53.180;5.800;2023-05-09T04:12:46;49.80;;;30.63;;
55090;SDS011;40985;53.180;5.800;2023-05-09T04:15:11;59.33;;;32.40;;
55090;SDS011;40985;53.180;5.800;2023-05-09T04:17:37;59.05;;;32.30;;
55090;SDS011;40985;53.180;5.800;2023-05-09T04:20:03;53.60;;;30.33;;
55090;SDS011;40985;53.180;5.800;2023-05-09T04:22:30;54.88;;;31.67;;
55090;SDS011;40985;53.180;5.800;2023-05-09T04:24:56;50.65;;;29.15;;
55090;SDS011;40985;53.180;5.800;2023-05-09T04:27:21;57.40;;;31.80;;
55090;SDS011;40985;53.180;5.800;2023-05-09T04:29:47;55.08;;;32.17;;
55090;SDS011;40985;53.180;5.800;2023-05-09T04:32:13;54.40;;;30.33;;
55090;SDS011;40985;53.180;5.800;2023-05-09T04:34:39;60.42;;;33.13;;
55090;SDS011;40985;53.180;5.800;2023-05-09T04:37:05;57.83;;;32.33;;
55090;SDS011;40985;53.180;5.800;2023-05-09T04:39:31;54.95;;;30.63;;
55090;SDS011;40985;53.180;5.800;2023-05-09T04:41:56;55.15;;;31.95;;
55090;SDS011;40985;53.180;5.800;2023-05-09T04:44:22;52.22;;;30.63;;
55090;SDS011;40985;53.180;5.800;2023-05-09T04:46:49;58.35;;;32.33;;
55090;SDS011;40985;53.180;5.800;2023-05-09T04:49:15;51.47;;;32.53;;
55090;SDS011;40985;53.180;5.800;2023-05-09T04:51:40;57.70;;;31.98;;
55090;SDS011;40985;53.180;5.800;2023-05-09T04:54:06;66.28;;;33.85;;
55090;SDS011;40985;53.180;5.800;2023-05-09T04:56:32;58.75;;;32.67;;
55090;SDS011;40985;53.180;5.800;2023-05-09T04:58:57;56.97;;;31.23;;
55090;SDS011;40985;53.180;5.800;2023-05-09T05:01:23;60.80;;;33.85;;
55090;SDS011;40985;53.180;5.800;2023-05-09T05:03:49;56.10;;;31.85;;
55090;SDS011;40985;53.180;5.800;2023-05-09T05:06:14;63.83;;;33.08;;
55090;SDS011;40985;53.180;5.800;2023-05-09T05:08:40;65.90;;;34.53;;
55090;SDS011;40985;53.180;5.800;2023-05-09T05:11:05;61.85;;;33.72;;
55090;SDS011;40985;53.180;5.800;2023-05-09T05:13:31;61.72;;;33.15;;
55090;SDS011;40985;53.180;5.800;2023-05-09T05:15:57;65.22;;;34.05;;
55090;SDS011;40985;53.180;5.800;2023-05-09T05:18:22;67.95;;;35.28;;
55090;SDS011;40985;53.180;5.800;2023-05-09T05:20:48;66.65;;;35.60;;
55090;SDS011;40985;53.180;5.800;2023-05-09T05:23:14;66.03;;;35.58;;
55090;SDS011;40985;53.180;5.800;2023-05-09T05:25:39;66.65;;;35.25;;
55090;SDS011;40985;53.180;5.800;2023-05-09T05:28:05;68.03;;;36.70;;
55090;SDS011;40985;53.180;5.800;2023-05-09T05:30:31;65.43;;;34.45;;
55090;SDS011;40985;53.180;5.800;2023-05-09T05:32:56;69.60;;;37.05;;
55090;SDS011;40985;53.180;5.800;2023-05-09T05:35:22;66.53;;;35.75;;
55090;SDS011;40985;53.180;5.800;2023-05-09T05:37:48;72.22;;;38.53;;
55090;SDS011;40985;53.180;5.800;2023-05-09T05:40:14;68.93;;;36.75;;
55090;SDS011;40985;53.180;5.800;2023-05-09T05:42:40;71.03;;;37.38;;
55090;SDS011;40985;53.180;5.800;2023-05-09T05:45:06;77.63;;;39.10;;
55090;SDS011;40985;53.180;5.800;2023-05-09T05:47:33;74.35;;;38.60;;
55090;SDS011;40985;53.180;5.800;2023-05-09T05:49:59;75.75;;;41.03;;
55090;SDS011;40985;53.180;5.800;2023-05-09T05:52:25;68.60;;;38.58;;
55090;SDS011;40985;53.180;5.800;2023-05-09T05:54:52;73.10;;;39.90;;
55090;SDS011;40985;53.180;5.800;2023-05-09T05:57:18;78.38;;;41.10;;
55090;SDS011;40985;53.180;5.800;2023-05-09T05:59:45;81.00;;;41.05;;
55090;SDS011;40985;53.180;5.800;2023-05-09T06:02:12;75.97;;;41.78;;
55090;SDS011;40985;53.180;5.800;2023-05-09T06:04:38;83.60;;;43.30;;
55090;SDS011;40985;53.180;5.800;2023-05-09T06:07:04;79.28;;;41.47;;
55090;SDS011;40985;53.180;5.800;2023-05-09T06:09:30;79.60;;;42.88;;
55090;SDS011;40985;53.180;5.800;2023-05-09T06:11:56;79.07;;;42.30;;
55090;SDS011;40985;53.180;5.800;2023-05-09T06:14:21;80.45;;;43.92;;
55090;SDS011;40985;53.180;5.800;2023-05-09T06:16:47;81.15;;;43.55;;
55090;SDS011;40985;53.180;5.800;2023-05-09T06:19:13;80.45;;;43.47;;
55090;SDS011;40985;53.180;5.800;2023-05-09T06:21:38;76.95;;;43.35;;
55090;SDS011;40985;53.180;5.800;2023-05-09T06:24:04;76.00;;;44.20;;
55090;SDS011;40985;53.180;5.800;2023-05-09T06:26:30;83.93;;;45.63;;
55090;SDS011;40985;53.180;5.800;2023-05-09T06:28:56;78.20;;;44.78;;
55090;SDS011;40985;53.180;5.800;2023-05-09T06:31:21;78.40;;;42.90;;
55090;SDS011;40985;53.180;5.800;2023-05-09T06:33:47;82.68;;;45.10;;
55090;SDS011;40985;53.180;5.800;2023-05-09T06:36:13;83.97;;;46.72;;
55090;SDS011;40985;53.180;5.800;2023-05-09T06:38:38;79.95;;;44.58;;
55090;SDS011;40985;53.180;5.800;2023-05-09T06:41:04;82.57;;;45.53;;
55090;SDS011;40985;53.180;5.800;2023-05-09T06:43:30;82.93;;;46.88;;
55090;SDS011;40985;53.180;5.800;2023-05-09T06:45:55;79.38;;;44.83;;
55090;SDS011;40985;53.180;5.800;2023-05-09T06:48:21;79.72;;;45.70;;
55090;SDS011;40985;53.180;5.800;2023-05-09T06:50:48;79.93;;;45.90;;
55090;SDS011;40985;53.180;5.800;2023-05-09T06:53:14;76.45;;;43.65;;
55090;SDS011;40985;53.180;5.800;2023-05-09T06:55:40;81.53;;;46.90;;
55090;SDS011;40985;53.180;5.800;2023-05-09T06:58:06;79.57;;;44.97;;
55090;SDS011;40985;53.180;5.800;2023-05-09T07:00:32;79.40;;;46.35;;
55090;SDS011;40985;53.180;5.800;2023-05-09T07:02:57;80.43;;;45.50;;
55090;SDS011;40985;53.180;5.800;2023-05-09T07:05:23;82.32;;;45.72;;
55090;SDS011;40985;53.180;5.800;2023-05-09T07:07:49;71.57;;;43.95;;
55090;SDS011;40985;53.180;5.800;2023-05-09T07:10:15;73.47;;;44.72;;
55090;SDS011;40985;53.180;5.800;2023-05-09T07:12:41;75.68;;;44.17;;
55090;SDS011;40985;53.180;5.800;2023-05-09T07:15:07;78.43;;;46.38;;
55090;SDS011;40985;53.180;5.800;2023-05-09T07:17:33;77.07;;;45.50;;
55090;SDS011;40985;53.180;5.800;2023-05-09T07:19:59;68.47;;;42.65;;
55090;SDS011;40985;53.180;5.800;2023-05-09T07:22:26;68.97;;;41.17;;
55090;SDS011;40985;53.180;5.800;2023-05-09T07:24:51;70.13;;;42.33;;
55090;SDS011;40985;53.180;5.800;2023-05-09T07:27:17;66.90;;;40.35;;
55090;SDS011;40985;53.180;5.800;2023-05-09T07:29:43;68.57;;;42.22;;
55090;SDS011;40985;53.180;5.800;2023-05-09T07:32:08;67.13;;;40.90;;
55090;SDS011;40985;53.180;5.800;2023-05-09T07:34:34;63.15;;;40.35;;
55090;SDS011;40985;53.180;5.800;2023-05-09T07:37:00;65.78;;;40.83;;
55090;SDS011;40985;53.180;5.800;2023-05-09T07:39:26;66.50;;;41.05;;
55090;SDS011;40985;53.180;5.800;2023-05-09T07:41:52;64.70;;;40.63;;
55090;SDS011;40985;53.180;5.800;2023-05-09T07:44:17;66.78;;;40.63;;
55090;SDS011;40985;53.180;5.800;2023-05-09T07:46:43;61.58;;;39.75;;
55090;SDS011;40985;53.180;5.800;2023-05-09T07:49:08;65.43;;;40.47;;
55090;SDS011;40985;53.180;5.800;2023-05-09T07:51:34;62.83;;;40.70;;
55090;SDS011;40985;53.180;5.800;2023-05-09T07:54:00;61.28;;;39.67;;
55090;SDS011;40985;53.180;5.800;2023-05-09T07:56:25;63.20;;;38.72;;
55090;SDS011;40985;53.180;5.800;2023-05-09T07:58:51;64.57;;;41.05;;
55090;SDS011;40985;53.180;5.800;2023-05-09T08:01:17;61.45;;;38.55;;
55090;SDS011;40985;53.180;5.800;2023-05-09T08:03:42;62.92;;;40.63;;
55090;SDS011;40985;53.180;5.800;2023-05-09T08:06:08;59.38;;;39.03;;
55090;SDS011;40985;53.180;5.800;2023-05-09T08:08:34;59.75;;;39.25;;
55090;SDS011;40985;53.180;5.800;2023-05-09T08:10:59;59.67;;;37.40;;
55090;SDS011;40985;53.180;5.800;2023-05-09T08:13:25;60.53;;;38.83;;
55090;SDS011;40985;53.180;5.800;2023-05-09T08:15:51;57.53;;;36.97;;
55090;SDS011;40985;53.180;5.800;2023-05-09T08:18:16;58.53;;;35.83;;
55090;SDS011;40985;53.180;5.800;2023-05-09T08:20:42;55.53;;;34.80;;
55090;SDS011;40985;53.180;5.800;2023-05-09T08:23:08;51.53;;;33.80;;
55090;SDS011;40985;53.180;5.800;2023-05-09T08:25:33;49.15;;;32.88;;
55090;SDS011;40985;53.180;5.800;2023-05-09T08:27:59;53.45;;;34.03;;
55090;SDS011;40985;53.180;5.800;2023-05-09T08:30:25;52.47;;;34.00;;
55090;SDS011;40985;53.180;5.800;2023-05-09T08:32:53;54.95;;;34.53;;
55090;SDS011;40985;53.180;5.800;2023-05-09T08:35:19;58.65;;;35.22;;
55090;SDS011;40985;53.180;5.800;2023-05-09T08:37:45;50.17;;;33.80;;
55090;SDS011;40985;53.180;5.800;2023-05-09T08:40:12;52.75;;;32.65;;
55090;SDS011;40985;53.180;5.800;2023-05-09T08:42:38;50.75;;;32.85;;
55090;SDS011;40985;53.180;5.800;2023-05-09T08:45:06;47.10;;;31.05;;
55090;SDS011;40985;53.180;5.800;2023-05-09T08:47:34;45.33;;;30.75;;
55090;SDS011;40985;53.180;5.800;2023-05-09T08:50:02;43.55;;;29.73;;
55090;SDS011;40985;53.180;5.800;2023-05-09T08:52:29;46.80;;;29.63;;
55090;SDS011;40985;53.180;5.800;2023-05-09T08:54:56;42.28;;;28.45;;
55090;SDS011;40985;53.180;5.800;2023-05-09T08:57:22;40.58;;;27.80;;
55090;SDS011;40985;53.180;5.800;2023-05-09T08:59:48;40.13;;;28.70;;
55090;SDS011;40985;53.180;5.800;2023-05-09T09:02:16;39.17;;;27.13;;
55090;SDS011;40985;53.180;5.800;2023-05-09T09:04:42;42.90;;;29.15;;
55090;SDS011;40985;53.180;5.800;2023-05-09T09:07:09;41.15;;;28.33;;
55090;SDS011;40985;53.180;5.800;2023-05-09T09:09:36;40.05;;;26.92;;
55090;SDS011;40985;53.180;5.800;2023-05-09T09:12:09;34.85;;;23.52;;
55090;SDS011;40985;53.180;5.800;2023-05-09T09:14:40;36.28;;;23.35;;
55090;SDS011;40985;53.180;5.800;2023-05-09T09:17:10;33.60;;;21.73;;
55090;SDS011;40985;53.180;5.800;2023-05-09T09:19:39;31.40;;;21.02;;
55090;SDS011;40985;53.180;5.800;2023-05-09T09:22:07;31.38;;;21.90;;
55090;SDS011;40985;53.180;5.800;2023-05-09T09:24:37;31.45;;;21.63;;
55090;SDS011;40985;53.180;5.800;2023-05-09T09:27:04;30.25;;;20.48;;
55090;SDS011;40985;53.180;5.800;2023-05-09T09:29:30;29.55;;;21.20;;
55090;SDS011;40985;53.180;5.800;2023-05-09T09:32:00;29.85;;;20.55;;
55090;SDS011;40985;53.180;5.800;2023-05-09T09:34:27;31.45;;;21.42;;
55090;SDS011;40985;53.180;5.800;2023-05-09T09:36:53;26.33;;;18.35;;
55090;SDS011;40985;53.180;5.800;2023-05-09T09:39:19;27.02;;;19.98;;
55090;SDS011;40985;53.180;5.800;2023-05-09T09:41:46;29.67;;;18.77;;
55090;SDS011;40985;53.180;5.800;2023-05-09T09:44:21;26.67;;;17.63;;
55090;SDS011;40985;53.180;5.800;2023-05-09T09:46:48;27.55;;;18.55;;
55090;SDS011;40985;53.180;5.800;2023-05-09T09:49:15;26.10;;;17.20;;
55090;SDS011;40985;53.180;5.800;2023-05-09T09:51:48;25.85;;;17.65;;
55090;SDS011;40985;53.180;5.800;2023-05-09T09:54:15;27.80;;;18.25;;
55090;SDS011;40985;53.180;5.800;2023-05-09T09:56:43;24.10;;;18.58;;
55090;SDS011;40985;53.180;5.800;2023-05-09T09:59:14;25.60;;;18.23;;
55090;SDS011;40985;53.180;5.800;2023-05-09T10:01:54;24.40;;;18.02;;
55090;SDS011;40985;53.180;5.800;2023-05-09T10:04:31;24.20;;;18.23;;
55090;SDS011;40985;53.180;5.800;2023-05-09T10:07:05;25.52;;;18.15;;
55090;SDS011;40985;53.180;5.800;2023-05-09T10:09:35;22.95;;;18.02;;
55090;SDS011;40985;53.180;5.800;2023-05-09T10:12:04;27.33;;;19.80;;
55090;SDS011;40985;53.180;5.800;2023-05-09T10:14:32;26.17;;;19.45;;
55090;SDS011;40985;53.180;5.800;2023-05-09T10:16:59;25.98;;;19.85;;
55090;SDS011;40985;53.180;5.800;2023-05-09T10:19:26;27.50;;;20.00;;
55090;SDS011;40985;53.180;5.800;2023-05-09T10:21:54;28.65;;;20.13;;
55090;SDS011;40985;53.180;5.800;2023-05-09T10:24:37;26.05;;;19.45;;
55090;SDS011;40985;53.180;5.800;2023-05-09T10:27:08;24.20;;;18.67;;
55090;SDS011;40985;53.180;5.800;2023-05-09T10:29:45;23.92;;;18.45;;
55090;SDS011;40985;53.180;5.800;2023-05-09T10:32:45;28.38;;;19.33;;
55090;SDS011;40985;53.180;5.800;2023-05-09T10:35:23;23.95;;;18.90;;
55090;SDS011;40985;53.180;5.800;2023-05-09T10:37:54;25.10;;;18.88;;
55090;SDS011;40985;53.180;5.800;2023-05-09T10:40:21;24.88;;;18.80;;
55090;SDS011;40985;53.180;5.800;2023-05-09T10:42:47;20.63;;;17.38;;
55090;SDS011;40985;53.180;5.800;2023-05-09T10:45:13;23.45;;;17.45;;
55090;SDS011;40985;53.180;5.800;2023-05-09T10:47:39;18.60;;;16.50;;
55090;SDS011;40985;53.180;5.800;2023-05-09T10:50:06;20.33;;;16.70;;
55090;SDS011;40985;53.180;5.800;2023-05-09T10:52:34;17.77;;;15.90;;
55090;SDS011;40985;53.180;5.800;2023-05-09T10:55:20;18.48;;;16.08;;
55090;SDS011;40985;53.180;5.800;2023-05-09T10:57:45;18.52;;;16.63;;
55090;SDS011;40985;53.180;5.800;2023-05-09T11:00:22;18.77;;;16.88;;
55090;SDS011;40985;53.180;5.800;2023-05-09T11:03:07;19.95;;;17.85;;
55090;SDS011;40985;53.180;5.800;2023-05-09T11:05:37;19.67;;;17.55;;
55090;SDS011;40985;53.180;5.800;2023-05-09T11:08:22;19.58;;;16.95;;
55090;SDS011;40985;53.180;5.800;2023-05-09T11:10:52;17.83;;;15.70;;
55090;SDS011;40985;53.180;5.800;2023-05-09T11:13:19;15.90;;;14.23;;
55090;SDS011;40985;53.180;5.800;2023-05-09T11:18:25;14.48;;;13.00;;
55090;SDS011;40985;53.180;5.800;2023-05-09T11:20:52;14.10;;;12.60;;
55090;SDS011;40985;53.180;5.800;2023-05-09T11:23:19;15.57;;;13.93;;
55090;SDS011;40985;53.180;5.800;2023-05-09T11:25:49;15.38;;;13.68;;
55090;SDS011;40985;53.180;5.800;2023-05-09T11:31:16;15.57;;;13.98;;
55090;SDS011;40985;53.180;5.800;2023-05-09T11:33:43;16.98;;;15.32;;
55090;SDS011;40985;53.180;5.800;2023-05-09T11:36:21;17.15;;;15.35;;
55090;SDS011;40985;53.180;5.800;2023-05-09T11:41:27;17.63;;;15.82;;
55090;SDS011;40985;53.180;5.800;2023-05-09T11:43:53;19.27;;;17.20;;
55090;SDS011;40985;53.180;5.800;2023-05-09T11:46:20;20.17;;;17.58;;
55090;SDS011;40985;53.180;5.800;2023-05-09T11:48:46;19.75;;;17.63;;
55090;SDS011;40985;53.180;5.800;2023-05-09T11:51:16;20.27;;;17.70;;
55090;SDS011;40985;53.180;5.800;2023-05-09T11:53:43;19.27;;;17.20;;
55090;SDS011;40985;53.180;5.800;2023-05-09T11:56:11;20.67;;;18.40;;
55090;SDS011;40985;53.180;5.800;2023-05-09T11:58:37;20.63;;;17.92;;
55090;SDS011;40985;53.180;5.800;2023-05-09T12:01:04;19.20;;;17.17;;
55090;SDS011;40985;53.180;5.800;2023-05-09T12:03:30;19.13;;;17.23;;
55090;SDS011;40985;53.180;5.800;2023-05-09T12:05:56;17.08;;;15.35;;
55090;SDS011;40985;53.180;5.800;2023-05-09T12:08:23;16.70;;;14.95;;
55090;SDS011;40985;53.180;5.800;2023-05-09T12:10:49;15.75;;;14.35;;
55090;SDS011;40985;53.180;5.800;2023-05-09T12:13:15;14.85;;;13.38;;
55090;SDS011;40985;53.180;5.800;2023-05-09T12:15:42;14.13;;;12.73;;
55090;SDS011;40985;53.180;5.800;2023-05-09T12:18:07;13.93;;;12.63;;
55090;SDS011;40985;53.180;5.800;2023-05-09T12:20:43;14.20;;;12.80;;
55090;SDS011;40985;53.180;5.800;2023-05-09T12:23:14;11.57;;;10.48;;
55090;SDS011;40985;53.180;5.800;2023-05-09T12:25:55;12.40;;;11.32;;
55090;SDS011;40985;53.180;5.800;2023-05-09T12:28:22;12.68;;;11.18;;
55090;SDS011;40985;53.180;5.800;2023-05-09T12:30:50;12.05;;;11.05;;
55090;SDS011;40985;53.180;5.800;2023-05-09T12:33:17;12.52;;;11.27;;
55090;SDS011;40985;53.180;5.800;2023-05-09T12:35:44;12.45;;;11.45;;
55090;SDS011;40985;53.180;5.800;2023-05-09T12:38:22;11.07;;;10.20;;
55090;SDS011;40985;53.180;5.800;2023-05-09T12:40:48;11.57;;;10.45;;
55090;SDS011;40985;53.180;5.800;2023-05-09T12:43:35;11.88;;;10.77;;
55090;SDS011;40985;53.180;5.800;2023-05-09T12:46:02;12.68;;;11.20;;
55090;SDS011;40985;53.180;5.800;2023-05-09T12:48:29;12.05;;;10.93;;
55090;SDS011;40985;53.180;5.800;2023-05-09T12:51:02;10.73;;;9.70;;
55090;SDS011;40985;53.180;5.800;2023-05-09T12:53:29;10.35;;;9.35;;
55090;SDS011;40985;53.180;5.800;2023-05-09T12:56:10;8.27;;;7.30;;
55090;SDS011;40985;53.180;5.800;2023-05-09T12:58:39;7.95;;;7.15;;
55090;SDS011;40985;53.180;5.800;2023-05-09T13:01:16;7.60;;;6.90;;
55090;SDS011;40985;53.180;5.800;2023-05-09T13:03:43;8.00;;;7.25;;
55090;SDS011;40985;53.180;5.800;2023-05-09T13:06:12;7.93;;;7.32;;
55090;SDS011;40985;53.180;5.800;2023-05-09T13:08:38;7.32;;;6.72;;
55090;SDS011;40985;53.180;5.800;2023-05-09T13:11:04;7.68;;;7.05;;
55090;SDS011;40985;53.180;5.800;2023-05-09T13:13:33;5.97;;;5.47;;
55090;SDS011;40985;53.180;5.800;2023-05-09T13:15:59;4.97;;;4.57;;
55090;SDS011;40985;53.180;5.800;2023-05-09T13:18:24;4.03;;;3.70;;
55090;SDS011;40985;53.180;5.800;2023-05-09T13:20:50;3.30;;;3.00;;
55090;SDS011;40985;53.180;5.800;2023-05-09T13:23:16;3.58;;;2.75;;
55090;SDS011;40985;53.180;5.800;2023-05-09T13:25:42;3.00;;;2.80;;
55090;SDS011;40985;53.180;5.800;2023-05-09T13:28:08;2.75;;;2.65;;
55090;SDS011;40985;53.180;5.800;2023-05-09T13:30:33;3.67;;;3.08;;
55090;SDS011;40985;53.180;5.800;2023-05-09T13:32:59;2.75;;;2.55;;
55090;SDS011;40985;53.180;5.800;2023-05-09T13:35:25;3.47;;;3.28;;
55090;SDS011;40985;53.180;5.800;2023-05-09T13:37:51;3.00;;;2.80;;
55090;SDS011;40985;53.180;5.800;2023-05-09T13:40:17;2.90;;;2.70;;
55090;SDS011;40985;53.180;5.800;2023-05-09T13:42:43;2.75;;;2.22;;
55090;SDS011;40985;53.180;5.800;2023-05-09T13:45:09;2.42;;;2.22;;
55090;SDS011;40985;53.180;5.800;2023-05-09T13:47:35;2.67;;;2.22;;
55090;SDS011;40985;53.180;5.800;2023-05-09T13:50:01;2.10;;;2.00;;
55090;SDS011;40985;53.180;5.800;2023-05-09T13:52:28;1.75;;;1.60;;
55090;SDS011;40985;53.180;5.800;2023-05-09T13:54:53;1.98;;;1.88;;
55090;SDS011;40985;53.180;5.800;2023-05-09T13:57:19;2.30;;;2.17;;
55090;SDS011;40985;53.180;5.800;2023-05-09T13:59:45;2.70;;;2.50;;
55090;SDS011;40985;53.180;5.800;2023-05-09T14:02:11;2.40;;;2.30;;
55090;SDS011;40985;53.180;5.800;2023-05-09T14:04:37;2.33;;;2.20;;
55090;SDS011;40985;53.180;5.800;2023-05-09T14:07:03;2.65;;;2.00;;
55090;SDS011;40985;53.180;5.800;2023-05-09T14:09:29;2.83;;;2.30;;
55090;SDS011;40985;53.180;5.800;2023-05-09T14:11:55;2.72;;;2.30;;
55090;SDS011;40985;53.180;5.800;2023-05-09T14:14:22;2.50;;;2.30;;
55090;SDS011;40985;53.180;5.800;2023-05-09T14:16:49;2.97;;;2.78;;
55090;SDS011;40985;53.180;5.800;2023-05-09T14:19:15;3.28;;;2.72;;
55090;SDS011;40985;53.180;5.800;2023-05-09T14:21:41;2.92;;;2.65;;
55090;SDS011;40985;53.180;5.800;2023-05-09T14:24:08;2.92;;;2.78;;
55090;SDS011;40985;53.180;5.800;2023-05-09T14:26:34;2.95;;;2.55;;
55090;SDS011;40985;53.180;5.800;2023-05-09T14:29:01;3.30;;;3.05;;
55090;SDS011;40985;53.180;5.800;2023-05-09T14:31:27;3.50;;;3.20;;
55090;SDS011;40985;53.180;5.800;2023-05-09T14:33:53;3.40;;;2.90;;
55090;SDS011;40985;53.180;5.800;2023-05-09T14:36:20;3.45;;;3.08;;
55090;SDS011;40985;53.180;5.800;2023-05-09T14:38:45;2.47;;;2.28;;
55090;SDS011;40985;53.180;5.800;2023-05-09T14:41:14;4.10;;;2.97;;
55090;SDS011;40985;53.180;5.800;2023-05-09T14:43:40;3.20;;;3.00;;
55090;SDS011;40985;53.180;5.800;2023-05-09T14:46:06;3.13;;;2.92;;
55090;SDS011;40985;53.180;5.800;2023-05-09T14:48:31;3.20;;;3.00;;